sensor_id;sensor_type;location;lat;lon;timestamp;P1;durP1;ratioP1;P2;durP2;ratioP2
15706;SDS011;7953;54.302;10.128;2022-12-18T00:01:28;26.70;;;15.27;;
15706;SDS011;7953;54.302;10.128;2022-12-18T00:03:58;21.80;;;13.63;;
15706;SDS011;7953;54.302;10.128;2022-12-18T00:06:26;25.40;;;16.27;;
15706;SDS011;7953;54.302;10.128;2022-12-18T00:08:54;21.67;;;14.57;;
15706;SDS011;7953;54.302;10.128;2022-12-18T00:11:23;23.03;;;15.70;;
15706;SDS011;7953;54.302;10.128;2022-12-18T00:13:52;19.10;;;14.13;;
15706;SDS011;7953;54.302;10.128;2022-12-18T00:16:21;23.57;;;15.87;;
15706;SDS011;7953;54.302;10.128;2022-12-18T00:18:51;24.00;;;14.60;;
15706;SDS011;7953;54.302;10.128;2022-12-18T00:21:20;22.63;;;14.23;;
15706;SDS011;7953;54.302;10.128;2022-12-18T00:23:47;24.03;;;15.13;;
15706;SDS011;7953;54.302;10.128;2022-12-18T00:26:16;21.17;;;14.57;;
15706;SDS011;7953;54.302;10.128;2022-12-18T00:28:48;23.00;;;14.13;;
15706;SDS011;7953;54.302;10.128;2022-12-18T00:31:16;23.60;;;14.73;;
15706;SDS011;7953;54.302;10.128;2022-12-18T00:33:45;21.20;;;14.40;;
15706;SDS011;7953;54.302;10.128;2022-12-18T00:36:14;17.93;;;12.67;;
15706;SDS011;7953;54.302;10.128;2022-12-18T00:38:42;24.00;;;14.13;;
15706;SDS011;7953;54.302;10.128;2022-12-18T00:41:10;22.50;;;13.97;;
15706;SDS011;7953;54.302;10.128;2022-12-18T00:43:38;23.77;;;13.93;;
15706;SDS011;7953;54.302;10.128;2022-12-18T00:46:05;22.17;;;14.83;;
15706;SDS011;7953;54.302;10.128;2022-12-18T00:48:32;19.67;;;12.63;;
15706;SDS011;7953;54.302;10.128;2022-12-18T00:50:59;23.50;;;15.83;;
15706;SDS011;7953;54.302;10.128;2022-12-18T00:53:27;21.37;;;13.23;;
15706;SDS011;7953;54.302;10.128;2022-12-18T00:55:54;23.07;;;14.47;;
15706;SDS011;7953;54.302;10.128;2022-12-18T00:58:21;21.83;;;14.07;;
15706;SDS011;7953;54.302;10.128;2022-12-18T01:00:47;20.77;;;14.37;;
15706;SDS011;7953;54.302;10.128;2022-12-18T01:03:14;24.43;;;15.10;;
15706;SDS011;7953;54.302;10.128;2022-12-18T01:05:41;21.13;;;14.53;;
15706;SDS011;7953;54.302;10.128;2022-12-18T01:08:09;22.27;;;12.50;;
15706;SDS011;7953;54.302;10.128;2022-12-18T01:10:37;20.57;;;13.90;;
15706;SDS011;7953;54.302;10.128;2022-12-18T01:13:06;18.33;;;13.50;;
15706;SDS011;7953;54.302;10.128;2022-12-18T01:15:33;22.47;;;13.70;;
15706;SDS011;7953;54.302;10.128;2022-12-18T01:18:00;21.80;;;14.33;;
15706;SDS011;7953;54.302;10.128;2022-12-18T01:20:27;19.03;;;12.40;;
15706;SDS011;7953;54.302;10.128;2022-12-18T01:22:54;19.53;;;13.00;;
15706;SDS011;7953;54.302;10.128;2022-12-18T01:25:20;20.70;;;12.43;;
15706;SDS011;7953;54.302;10.128;2022-12-18T01:27:49;19.63;;;13.07;;
15706;SDS011;7953;54.302;10.128;2022-12-18T01:30:15;20.87;;;13.07;;
15706;SDS011;7953;54.302;10.128;2022-12-18T01:32:42;18.03;;;12.17;;
15706;SDS011;7953;54.302;10.128;2022-12-18T01:35:09;21.40;;;13.67;;
15706;SDS011;7953;54.302;10.128;2022-12-18T01:37:36;22.93;;;12.93;;
15706;SDS011;7953;54.302;10.128;2022-12-18T01:40:03;20.30;;;13.17;;
15706;SDS011;7953;54.302;10.128;2022-12-18T01:42:31;18.90;;;14.63;;
15706;SDS011;7953;54.302;10.128;2022-12-18T01:45:00;22.07;;;13.07;;
15706;SDS011;7953;54.302;10.128;2022-12-18T01:47:33;18.87;;;12.23;;
15706;SDS011;7953;54.302;10.128;2022-12-18T01:50:05;19.33;;;13.33;;
15706;SDS011;7953;54.302;10.128;2022-12-18T01:52:34;21.83;;;13.13;;
15706;SDS011;7953;54.302;10.128;2022-12-18T01:55:03;20.53;;;13.57;;
15706;SDS011;7953;54.302;10.128;2022-12-18T01:57:32;17.47;;;12.80;;
15706;SDS011;7953;54.302;10.128;2022-12-18T02:00:03;18.23;;;12.90;;
15706;SDS011;7953;54.302;10.128;2022-12-18T02:02:32;21.70;;;14.47;;
15706;SDS011;7953;54.302;10.128;2022-12-18T02:04:59;18.20;;;11.47;;
15706;SDS011;7953;54.302;10.128;2022-12-18T02:07:30;20.67;;;13.23;;
15706;SDS011;7953;54.302;10.128;2022-12-18T02:10:05;19.73;;;13.00;;
15706;SDS011;7953;54.302;10.128;2022-12-18T02:12:41;16.57;;;12.00;;
15706;SDS011;7953;54.302;10.128;2022-12-18T02:15:13;18.40;;;12.27;;
15706;SDS011;7953;54.302;10.128;2022-12-18T02:17:46;21.00;;;13.83;;
15706;SDS011;7953;54.302;10.128;2022-12-18T02:20:20;22.40;;;12.97;;
15706;SDS011;7953;54.302;10.128;2022-12-18T02:22:55;17.17;;;10.93;;
15706;SDS011;7953;54.302;10.128;2022-12-18T02:25:34;18.77;;;12.13;;
15706;SDS011;7953;54.302;10.128;2022-12-18T02:28:12;18.07;;;12.70;;
15706;SDS011;7953;54.302;10.128;2022-12-18T02:30:41;18.80;;;12.50;;
15706;SDS011;7953;54.302;10.128;2022-12-18T02:33:10;20.83;;;11.97;;
15706;SDS011;7953;54.302;10.128;2022-12-18T02:35:38;18.00;;;12.20;;
15706;SDS011;7953;54.302;10.128;2022-12-18T02:38:07;16.00;;;11.33;;
15706;SDS011;7953;54.302;10.128;2022-12-18T02:40:35;19.17;;;12.23;;
15706;SDS011;7953;54.302;10.128;2022-12-18T02:43:06;17.33;;;12.07;;
15706;SDS011;7953;54.302;10.128;2022-12-18T02:45:36;15.07;;;12.10;;
15706;SDS011;7953;54.302;10.128;2022-12-18T02:48:12;20.50;;;13.17;;
15706;SDS011;7953;54.302;10.128;2022-12-18T02:50:41;18.97;;;13.27;;
15706;SDS011;7953;54.302;10.128;2022-12-18T02:53:17;22.10;;;12.77;;
15706;SDS011;7953;54.302;10.128;2022-12-18T02:55:52;18.57;;;11.90;;
15706;SDS011;7953;54.302;10.128;2022-12-18T02:58:28;17.10;;;12.30;;
15706;SDS011;7953;54.302;10.128;2022-12-18T03:01:06;20.70;;;12.63;;
15706;SDS011;7953;54.302;10.128;2022-12-18T03:03:38;17.50;;;11.87;;
15706;SDS011;7953;54.302;10.128;2022-12-18T03:06:12;15.73;;;10.90;;
15706;SDS011;7953;54.302;10.128;2022-12-18T03:08:46;18.67;;;11.87;;
15706;SDS011;7953;54.302;10.128;2022-12-18T03:11:17;20.97;;;12.63;;
15706;SDS011;7953;54.302;10.128;2022-12-18T03:14:04;21.33;;;13.27;;
15706;SDS011;7953;54.302;10.128;2022-12-18T03:16:35;20.67;;;11.53;;
15706;SDS011;7953;54.302;10.128;2022-12-18T03:19:03;17.53;;;12.47;;
15706;SDS011;7953;54.302;10.128;2022-12-18T03:21:35;17.90;;;11.97;;
15706;SDS011;7953;54.302;10.128;2022-12-18T03:24:11;23.77;;;10.50;;
15706;SDS011;7953;54.302;10.128;2022-12-18T03:26:40;19.43;;;11.63;;
15706;SDS011;7953;54.302;10.128;2022-12-18T03:29:12;22.40;;;12.50;;
15706;SDS011;7953;54.302;10.128;2022-12-18T03:31:45;19.13;;;12.43;;
15706;SDS011;7953;54.302;10.128;2022-12-18T03:34:16;17.77;;;12.13;;
15706;SDS011;7953;54.302;10.128;2022-12-18T03:36:47;16.83;;;12.20;;
15706;SDS011;7953;54.302;10.128;2022-12-18T03:39:14;16.77;;;11.60;;
15706;SDS011;7953;54.302;10.128;2022-12-18T03:41:43;16.93;;;11.83;;
15706;SDS011;7953;54.302;10.128;2022-12-18T03:44:13;19.30;;;12.43;;
15706;SDS011;7953;54.302;10.128;2022-12-18T03:46:47;17.20;;;11.93;;
15706;SDS011;7953;54.302;10.128;2022-12-18T03:49:23;17.30;;;10.63;;
15706;SDS011;7953;54.302;10.128;2022-12-18T03:51:54;16.07;;;11.57;;
15706;SDS011;7953;54.302;10.128;2022-12-18T03:54:27;15.93;;;11.43;;
15706;SDS011;7953;54.302;10.128;2022-12-18T03:56:57;17.50;;;11.70;;
15706;SDS011;7953;54.302;10.128;2022-12-18T03:59:27;17.30;;;11.00;;
15706;SDS011;7953;54.302;10.128;2022-12-18T04:01:57;19.30;;;11.37;;
15706;SDS011;7953;54.302;10.128;2022-12-18T04:04:26;16.47;;;10.10;;
15706;SDS011;7953;54.302;10.128;2022-12-18T04:06:54;16.77;;;11.60;;
15706;SDS011;7953;54.302;10.128;2022-12-18T04:09:22;18.23;;;11.23;;
15706;SDS011;7953;54.302;10.128;2022-12-18T04:11:50;16.40;;;10.13;;
15706;SDS011;7953;54.302;10.128;2022-12-18T04:14:18;18.13;;;11.23;;
15706;SDS011;7953;54.302;10.128;2022-12-18T04:16:45;18.37;;;10.47;;
15706;SDS011;7953;54.302;10.128;2022-12-18T04:19:13;15.30;;;11.87;;
15706;SDS011;7953;54.302;10.128;2022-12-18T04:21:40;17.23;;;11.13;;
15706;SDS011;7953;54.302;10.128;2022-12-18T04:24:07;15.00;;;10.77;;
15706;SDS011;7953;54.302;10.128;2022-12-18T04:26:34;19.73;;;11.30;;
15706;SDS011;7953;54.302;10.128;2022-12-18T04:29:01;15.03;;;11.13;;
15706;SDS011;7953;54.302;10.128;2022-12-18T04:31:28;14.67;;;9.40;;
15706;SDS011;7953;54.302;10.128;2022-12-18T04:33:55;15.67;;;10.93;;
15706;SDS011;7953;54.302;10.128;2022-12-18T04:36:23;16.97;;;11.97;;
15706;SDS011;7953;54.302;10.128;2022-12-18T04:38:53;15.73;;;11.13;;
15706;SDS011;7953;54.302;10.128;2022-12-18T04:41:20;18.00;;;11.00;;
15706;SDS011;7953;54.302;10.128;2022-12-18T04:43:47;15.37;;;10.90;;
15706;SDS011;7953;54.302;10.128;2022-12-18T04:46:14;18.33;;;11.47;;
15706;SDS011;7953;54.302;10.128;2022-12-18T04:48:41;17.57;;;10.93;;
15706;SDS011;7953;54.302;10.128;2022-12-18T04:51:08;15.17;;;10.60;;
15706;SDS011;7953;54.302;10.128;2022-12-18T04:53:36;14.60;;;9.73;;
15706;SDS011;7953;54.302;10.128;2022-12-18T04:56:04;16.63;;;10.97;;
15706;SDS011;7953;54.302;10.128;2022-12-18T04:58:31;18.47;;;9.60;;
15706;SDS011;7953;54.302;10.128;2022-12-18T05:00:58;18.97;;;10.73;;
15706;SDS011;7953;54.302;10.128;2022-12-18T05:03:25;15.87;;;10.93;;
15706;SDS011;7953;54.302;10.128;2022-12-18T05:05:52;20.13;;;12.20;;
15706;SDS011;7953;54.302;10.128;2022-12-18T05:08:19;14.83;;;11.03;;
15706;SDS011;7953;54.302;10.128;2022-12-18T05:10:47;17.20;;;11.43;;
15706;SDS011;7953;54.302;10.128;2022-12-18T05:13:14;16.30;;;10.87;;
15706;SDS011;7953;54.302;10.128;2022-12-18T05:15:41;16.97;;;11.50;;
15706;SDS011;7953;54.302;10.128;2022-12-18T05:18:08;14.00;;;10.30;;
15706;SDS011;7953;54.302;10.128;2022-12-18T05:20:35;16.40;;;11.30;;
15706;SDS011;7953;54.302;10.128;2022-12-18T05:23:01;15.17;;;11.20;;
15706;SDS011;7953;54.302;10.128;2022-12-18T05:25:28;20.67;;;12.77;;
15706;SDS011;7953;54.302;10.128;2022-12-18T05:27:57;17.63;;;12.17;;
15706;SDS011;7953;54.302;10.128;2022-12-18T05:30:23;17.20;;;11.53;;
15706;SDS011;7953;54.302;10.128;2022-12-18T05:32:50;19.37;;;12.50;;
15706;SDS011;7953;54.302;10.128;2022-12-18T05:35:17;39.43;;;22.43;;
15706;SDS011;7953;54.302;10.128;2022-12-18T05:37:44;19.73;;;13.83;;
15706;SDS011;7953;54.302;10.128;2022-12-18T05:40:11;34.93;;;18.37;;
15706;SDS011;7953;54.302;10.128;2022-12-18T05:42:39;20.20;;;16.97;;
15706;SDS011;7953;54.302;10.128;2022-12-18T05:45:07;18.37;;;11.50;;
15706;SDS011;7953;54.302;10.128;2022-12-18T05:47:35;26.80;;;14.83;;
15706;SDS011;7953;54.302;10.128;2022-12-18T05:50:02;20.93;;;13.70;;
15706;SDS011;7953;54.302;10.128;2022-12-18T05:52:30;18.70;;;12.53;;
15706;SDS011;7953;54.302;10.128;2022-12-18T05:54:56;57.20;;;31.23;;
15706;SDS011;7953;54.302;10.128;2022-12-18T05:57:24;56.23;;;31.50;;
15706;SDS011;7953;54.302;10.128;2022-12-18T05:59:51;26.50;;;17.30;;
15706;SDS011;7953;54.302;10.128;2022-12-18T06:02:20;19.77;;;12.03;;
15706;SDS011;7953;54.302;10.128;2022-12-18T06:04:47;15.83;;;11.30;;
15706;SDS011;7953;54.302;10.128;2022-12-18T06:07:14;19.13;;;10.40;;
15706;SDS011;7953;54.302;10.128;2022-12-18T06:09:41;11.60;;;8.53;;
15706;SDS011;7953;54.302;10.128;2022-12-18T06:12:08;14.23;;;10.63;;
15706;SDS011;7953;54.302;10.128;2022-12-18T06:14:35;11.17;;;8.63;;
15706;SDS011;7953;54.302;10.128;2022-12-18T06:17:02;14.83;;;10.50;;
15706;SDS011;7953;54.302;10.128;2022-12-18T06:19:30;19.83;;;10.73;;
15706;SDS011;7953;54.302;10.128;2022-12-18T06:21:57;16.57;;;11.00;;
15706;SDS011;7953;54.302;10.128;2022-12-18T06:24:24;11.73;;;9.33;;
15706;SDS011;7953;54.302;10.128;2022-12-18T06:26:51;17.20;;;10.43;;
15706;SDS011;7953;54.302;10.128;2022-12-18T06:29:18;14.37;;;10.23;;
15706;SDS011;7953;54.302;10.128;2022-12-18T06:31:45;12.43;;;8.40;;
15706;SDS011;7953;54.302;10.128;2022-12-18T06:34:12;14.57;;;10.10;;
15706;SDS011;7953;54.302;10.128;2022-12-18T06:36:40;12.40;;;8.70;;
15706;SDS011;7953;54.302;10.128;2022-12-18T06:39:07;15.80;;;10.63;;
15706;SDS011;7953;54.302;10.128;2022-12-18T06:41:34;14.30;;;9.53;;
15706;SDS011;7953;54.302;10.128;2022-12-18T06:44:02;13.57;;;10.13;;
15706;SDS011;7953;54.302;10.128;2022-12-18T06:46:29;17.73;;;11.07;;
15706;SDS011;7953;54.302;10.128;2022-12-18T06:48:57;14.70;;;9.40;;
15706;SDS011;7953;54.302;10.128;2022-12-18T06:51:24;13.87;;;9.73;;
15706;SDS011;7953;54.302;10.128;2022-12-18T06:53:52;17.23;;;9.97;;
15706;SDS011;7953;54.302;10.128;2022-12-18T06:56:19;16.67;;;9.50;;
15706;SDS011;7953;54.302;10.128;2022-12-18T06:58:46;18.17;;;12.60;;
15706;SDS011;7953;54.302;10.128;2022-12-18T07:01:13;18.00;;;10.37;;
15706;SDS011;7953;54.302;10.128;2022-12-18T07:03:41;15.33;;;10.40;;
15706;SDS011;7953;54.302;10.128;2022-12-18T07:06:12;13.37;;;9.87;;
15706;SDS011;7953;54.302;10.128;2022-12-18T07:08:40;13.33;;;9.20;;
15706;SDS011;7953;54.302;10.128;2022-12-18T07:11:09;13.33;;;10.07;;
15706;SDS011;7953;54.302;10.128;2022-12-18T07:13:36;18.07;;;10.13;;
15706;SDS011;7953;54.302;10.128;2022-12-18T07:16:07;15.20;;;10.63;;
15706;SDS011;7953;54.302;10.128;2022-12-18T07:18:35;12.93;;;9.47;;
15706;SDS011;7953;54.302;10.128;2022-12-18T07:21:02;32.47;;;17.77;;
15706;SDS011;7953;54.302;10.128;2022-12-18T07:23:31;18.47;;;12.83;;
15706;SDS011;7953;54.302;10.128;2022-12-18T07:26:00;12.93;;;9.53;;
15706;SDS011;7953;54.302;10.128;2022-12-18T07:28:29;12.53;;;8.67;;
15706;SDS011;7953;54.302;10.128;2022-12-18T07:30:57;16.53;;;10.10;;
15706;SDS011;7953;54.302;10.128;2022-12-18T07:33:24;15.77;;;9.47;;
15706;SDS011;7953;54.302;10.128;2022-12-18T07:35:51;17.27;;;9.23;;
15706;SDS011;7953;54.302;10.128;2022-12-18T07:38:17;13.97;;;9.70;;
15706;SDS011;7953;54.302;10.128;2022-12-18T07:40:44;11.90;;;7.83;;
15706;SDS011;7953;54.302;10.128;2022-12-18T07:43:11;17.17;;;9.80;;
15706;SDS011;7953;54.302;10.128;2022-12-18T07:45:39;15.93;;;9.17;;
15706;SDS011;7953;54.302;10.128;2022-12-18T07:48:06;12.13;;;8.03;;
15706;SDS011;7953;54.302;10.128;2022-12-18T07:50:33;13.07;;;8.43;;
15706;SDS011;7953;54.302;10.128;2022-12-18T07:53:00;12.13;;;8.67;;
15706;SDS011;7953;54.302;10.128;2022-12-18T07:55:28;14.20;;;9.67;;
15706;SDS011;7953;54.302;10.128;2022-12-18T07:57:55;11.70;;;7.23;;
15706;SDS011;7953;54.302;10.128;2022-12-18T08:00:22;13.10;;;9.03;;
15706;SDS011;7953;54.302;10.128;2022-12-18T08:02:50;13.03;;;8.40;;
15706;SDS011;7953;54.302;10.128;2022-12-18T08:05:18;11.80;;;8.20;;
15706;SDS011;7953;54.302;10.128;2022-12-18T08:07:45;15.90;;;10.93;;
15706;SDS011;7953;54.302;10.128;2022-12-18T08:10:12;12.70;;;10.03;;
15706;SDS011;7953;54.302;10.128;2022-12-18T08:12:39;11.03;;;8.83;;
15706;SDS011;7953;54.302;10.128;2022-12-18T08:15:06;15.67;;;9.53;;
15706;SDS011;7953;54.302;10.128;2022-12-18T08:17:34;12.87;;;8.90;;
15706;SDS011;7953;54.302;10.128;2022-12-18T08:20:02;10.50;;;7.60;;
15706;SDS011;7953;54.302;10.128;2022-12-18T08:22:29;14.33;;;8.83;;
15706;SDS011;7953;54.302;10.128;2022-12-18T08:24:56;12.33;;;9.10;;
15706;SDS011;7953;54.302;10.128;2022-12-18T08:27:23;12.50;;;9.57;;
15706;SDS011;7953;54.302;10.128;2022-12-18T08:29:50;14.10;;;8.90;;
15706;SDS011;7953;54.302;10.128;2022-12-18T08:32:18;14.27;;;9.53;;
15706;SDS011;7953;54.302;10.128;2022-12-18T08:34:45;12.47;;;8.60;;
15706;SDS011;7953;54.302;10.128;2022-12-18T08:37:13;15.93;;;9.63;;
15706;SDS011;7953;54.302;10.128;2022-12-18T08:39:40;14.20;;;8.90;;
15706;SDS011;7953;54.302;10.128;2022-12-18T08:42:06;15.33;;;11.00;;
15706;SDS011;7953;54.302;10.128;2022-12-18T08:44:51;12.67;;;8.57;;
15706;SDS011;7953;54.302;10.128;2022-12-18T08:47:18;16.13;;;9.47;;
15706;SDS011;7953;54.302;10.128;2022-12-18T08:49:45;13.33;;;8.73;;
15706;SDS011;7953;54.302;10.128;2022-12-18T08:52:13;17.43;;;9.50;;
15706;SDS011;7953;54.302;10.128;2022-12-18T08:54:41;22.43;;;14.10;;
15706;SDS011;7953;54.302;10.128;2022-12-18T08:57:08;24.10;;;14.53;;
15706;SDS011;7953;54.302;10.128;2022-12-18T08:59:35;24.80;;;14.87;;
15706;SDS011;7953;54.302;10.128;2022-12-18T09:02:01;16.93;;;10.97;;
15706;SDS011;7953;54.302;10.128;2022-12-18T09:04:28;18.87;;;11.97;;
15706;SDS011;7953;54.302;10.128;2022-12-18T09:06:55;15.17;;;9.87;;
15706;SDS011;7953;54.302;10.128;2022-12-18T09:09:23;14.50;;;9.87;;
15706;SDS011;7953;54.302;10.128;2022-12-18T09:11:50;17.70;;;10.57;;
15706;SDS011;7953;54.302;10.128;2022-12-18T09:14:17;15.47;;;9.63;;
15706;SDS011;7953;54.302;10.128;2022-12-18T09:16:44;13.07;;;10.07;;
15706;SDS011;7953;54.302;10.128;2022-12-18T09:19:11;18.03;;;10.20;;
15706;SDS011;7953;54.302;10.128;2022-12-18T09:21:38;17.80;;;12.13;;
15706;SDS011;7953;54.302;10.128;2022-12-18T09:24:05;19.37;;;13.07;;
15706;SDS011;7953;54.302;10.128;2022-12-18T09:26:33;17.83;;;10.07;;
15706;SDS011;7953;54.302;10.128;2022-12-18T09:29:00;15.33;;;10.83;;
15706;SDS011;7953;54.302;10.128;2022-12-18T09:31:28;15.80;;;11.03;;
15706;SDS011;7953;54.302;10.128;2022-12-18T09:33:55;18.63;;;12.50;;
15706;SDS011;7953;54.302;10.128;2022-12-18T09:36:22;20.23;;;12.53;;
15706;SDS011;7953;54.302;10.128;2022-12-18T09:38:49;16.70;;;10.07;;
15706;SDS011;7953;54.302;10.128;2022-12-18T09:41:19;15.37;;;10.43;;
15706;SDS011;7953;54.302;10.128;2022-12-18T09:44:01;14.53;;;9.90;;
15706;SDS011;7953;54.302;10.128;2022-12-18T09:46:31;14.70;;;10.53;;
15706;SDS011;7953;54.302;10.128;2022-12-18T09:49:02;14.87;;;10.53;;
15706;SDS011;7953;54.302;10.128;2022-12-18T09:51:33;17.80;;;9.63;;
15706;SDS011;7953;54.302;10.128;2022-12-18T09:54:03;14.97;;;10.80;;
15706;SDS011;7953;54.302;10.128;2022-12-18T09:56:35;14.10;;;10.53;;
15706;SDS011;7953;54.302;10.128;2022-12-18T09:59:09;13.50;;;9.87;;
15706;SDS011;7953;54.302;10.128;2022-12-18T10:01:44;13.33;;;8.53;;
15706;SDS011;7953;54.302;10.128;2022-12-18T10:04:11;18.80;;;11.83;;
15706;SDS011;7953;54.302;10.128;2022-12-18T10:06:39;17.20;;;12.47;;
15706;SDS011;7953;54.302;10.128;2022-12-18T10:09:12;19.07;;;12.77;;
15706;SDS011;7953;54.302;10.128;2022-12-18T10:11:48;18.10;;;12.27;;
15706;SDS011;7953;54.302;10.128;2022-12-18T10:14:26;17.90;;;10.03;;
15706;SDS011;7953;54.302;10.128;2022-12-18T10:16:59;18.90;;;12.50;;
15706;SDS011;7953;54.302;10.128;2022-12-18T10:19:37;21.50;;;14.23;;
15706;SDS011;7953;54.302;10.128;2022-12-18T10:22:16;21.77;;;13.67;;
15706;SDS011;7953;54.302;10.128;2022-12-18T10:24:52;19.00;;;12.80;;
15706;SDS011;7953;54.302;10.128;2022-12-18T10:27:23;24.37;;;13.90;;
15706;SDS011;7953;54.302;10.128;2022-12-18T10:29:53;18.57;;;11.37;;
15706;SDS011;7953;54.302;10.128;2022-12-18T10:32:21;16.67;;;11.97;;
15706;SDS011;7953;54.302;10.128;2022-12-18T10:34:50;22.33;;;11.80;;
15706;SDS011;7953;54.302;10.128;2022-12-18T10:37:20;15.43;;;11.20;;
15706;SDS011;7953;54.302;10.128;2022-12-18T10:40:04;16.13;;;11.00;;
15706;SDS011;7953;54.302;10.128;2022-12-18T10:42:35;13.87;;;10.17;;
15706;SDS011;7953;54.302;10.128;2022-12-18T10:45:07;14.20;;;10.37;;
15706;SDS011;7953;54.302;10.128;2022-12-18T10:47:36;16.00;;;10.80;;
15706;SDS011;7953;54.302;10.128;2022-12-18T10:50:11;16.20;;;11.60;;
15706;SDS011;7953;54.302;10.128;2022-12-18T10:52:50;13.83;;;10.17;;
15706;SDS011;7953;54.302;10.128;2022-12-18T10:55:22;15.80;;;11.47;;
15706;SDS011;7953;54.302;10.128;2022-12-18T10:57:53;19.00;;;11.53;;
15706;SDS011;7953;54.302;10.128;2022-12-18T11:00:23;15.67;;;10.80;;
15706;SDS011;7953;54.302;10.128;2022-12-18T11:02:52;16.70;;;11.53;;
15706;SDS011;7953;54.302;10.128;2022-12-18T11:05:27;15.80;;;10.83;;
15706;SDS011;7953;54.302;10.128;2022-12-18T11:07:55;15.80;;;10.97;;
15706;SDS011;7953;54.302;10.128;2022-12-18T11:10:25;17.27;;;10.73;;
15706;SDS011;7953;54.302;10.128;2022-12-18T11:12:54;12.60;;;7.80;;
15706;SDS011;7953;54.302;10.128;2022-12-18T11:15:25;12.90;;;8.83;;
15706;SDS011;7953;54.302;10.128;2022-12-18T11:17:55;13.73;;;9.40;;
15706;SDS011;7953;54.302;10.128;2022-12-18T11:20:29;13.63;;;9.40;;
15706;SDS011;7953;54.302;10.128;2022-12-18T11:22:58;16.40;;;10.50;;
15706;SDS011;7953;54.302;10.128;2022-12-18T11:25:26;17.70;;;11.30;;
15706;SDS011;7953;54.302;10.128;2022-12-18T11:27:55;17.77;;;11.50;;
15706;SDS011;7953;54.302;10.128;2022-12-18T11:30:26;14.93;;;10.63;;
15706;SDS011;7953;54.302;10.128;2022-12-18T11:32:55;13.17;;;9.23;;
15706;SDS011;7953;54.302;10.128;2022-12-18T11:35:32;14.30;;;10.13;;
15706;SDS011;7953;54.302;10.128;2022-12-18T11:38:09;23.53;;;12.90;;
15706;SDS011;7953;54.302;10.128;2022-12-18T11:40:42;19.73;;;12.20;;
15706;SDS011;7953;54.302;10.128;2022-12-18T11:43:13;21.80;;;14.40;;
15706;SDS011;7953;54.302;10.128;2022-12-18T11:45:46;17.60;;;12.60;;
15706;SDS011;7953;54.302;10.128;2022-12-18T11:48:18;17.07;;;11.40;;
15706;SDS011;7953;54.302;10.128;2022-12-18T11:50:49;18.40;;;10.87;;
15706;SDS011;7953;54.302;10.128;2022-12-18T11:53:17;21.20;;;11.93;;
15706;SDS011;7953;54.302;10.128;2022-12-18T11:55:48;15.27;;;11.03;;
15706;SDS011;7953;54.302;10.128;2022-12-18T11:58:26;13.80;;;9.00;;
15706;SDS011;7953;54.302;10.128;2022-12-18T12:01:02;14.77;;;10.17;;
15706;SDS011;7953;54.302;10.128;2022-12-18T12:03:45;15.40;;;11.57;;
15706;SDS011;7953;54.302;10.128;2022-12-18T12:06:21;18.73;;;11.73;;
15706;SDS011;7953;54.302;10.128;2022-12-18T12:08:58;14.13;;;10.40;;
15706;SDS011;7953;54.302;10.128;2022-12-18T12:11:35;13.77;;;10.33;;
15706;SDS011;7953;54.302;10.128;2022-12-18T12:14:13;15.50;;;11.30;;
15706;SDS011;7953;54.302;10.128;2022-12-18T12:16:56;20.13;;;11.97;;
15706;SDS011;7953;54.302;10.128;2022-12-18T12:19:32;15.63;;;11.87;;
15706;SDS011;7953;54.302;10.128;2022-12-18T12:22:09;16.13;;;11.30;;
15706;SDS011;7953;54.302;10.128;2022-12-18T12:24:48;16.70;;;10.77;;
15706;SDS011;7953;54.302;10.128;2022-12-18T12:27:25;18.70;;;11.60;;
15706;SDS011;7953;54.302;10.128;2022-12-18T12:30:00;22.47;;;12.07;;
15706;SDS011;7953;54.302;10.128;2022-12-18T12:35:28;17.83;;;11.63;;
15706;SDS011;7953;54.302;10.128;2022-12-18T12:38:05;15.57;;;10.73;;
15706;SDS011;7953;54.302;10.128;2022-12-18T12:40:37;18.90;;;11.83;;
15706;SDS011;7953;54.302;10.128;2022-12-18T12:43:12;15.80;;;10.13;;
15706;SDS011;7953;54.302;10.128;2022-12-18T12:45:47;19.90;;;11.53;;
15706;SDS011;7953;54.302;10.128;2022-12-18T12:48:20;16.00;;;10.37;;
15706;SDS011;7953;54.302;10.128;2022-12-18T12:50:57;17.03;;;12.00;;
15706;SDS011;7953;54.302;10.128;2022-12-18T12:53:27;16.10;;;11.17;;
15706;SDS011;7953;54.302;10.128;2022-12-18T12:56:00;20.63;;;13.20;;
15706;SDS011;7953;54.302;10.128;2022-12-18T12:58:31;20.67;;;13.20;;
15706;SDS011;7953;54.302;10.128;2022-12-18T13:01:08;21.60;;;12.97;;
15706;SDS011;7953;54.302;10.128;2022-12-18T13:03:44;23.70;;;14.83;;
15706;SDS011;7953;54.302;10.128;2022-12-18T13:06:18;25.50;;;15.70;;
15706;SDS011;7953;54.302;10.128;2022-12-18T13:08:53;24.83;;;15.50;;
15706;SDS011;7953;54.302;10.128;2022-12-18T13:11:35;25.37;;;15.50;;
15706;SDS011;7953;54.302;10.128;2022-12-18T13:14:22;24.60;;;13.70;;
15706;SDS011;7953;54.302;10.128;2022-12-18T13:16:52;30.57;;;16.37;;
15706;SDS011;7953;54.302;10.128;2022-12-18T13:20:03;32.73;;;15.67;;
15706;SDS011;7953;54.302;10.128;2022-12-18T13:22:34;20.57;;;11.57;;
15706;SDS011;7953;54.302;10.128;2022-12-18T13:25:03;23.03;;;12.20;;
15706;SDS011;7953;54.302;10.128;2022-12-18T13:27:46;19.13;;;12.17;;
15706;SDS011;7953;54.302;10.128;2022-12-18T13:36:30;20.90;;;12.60;;
15706;SDS011;7953;54.302;10.128;2022-12-18T13:41:49;26.07;;;16.37;;
15706;SDS011;7953;54.302;10.128;2022-12-18T13:44:23;27.40;;;16.80;;
15706;SDS011;7953;54.302;10.128;2022-12-18T13:46:52;23.93;;;16.17;;
15706;SDS011;7953;54.302;10.128;2022-12-18T13:49:21;22.43;;;12.97;;
15706;SDS011;7953;54.302;10.128;2022-12-18T13:51:51;22.57;;;13.97;;
15706;SDS011;7953;54.302;10.128;2022-12-18T13:54:21;22.93;;;14.20;;
15706;SDS011;7953;54.302;10.128;2022-12-18T13:56:52;18.43;;;12.83;;
15706;SDS011;7953;54.302;10.128;2022-12-18T13:59:20;26.77;;;14.43;;
15706;SDS011;7953;54.302;10.128;2022-12-18T14:01:50;22.57;;;13.37;;
15706;SDS011;7953;54.302;10.128;2022-12-18T14:04:20;26.63;;;14.03;;
15706;SDS011;7953;54.302;10.128;2022-12-18T14:06:55;19.27;;;13.37;;
15706;SDS011;7953;54.302;10.128;2022-12-18T14:09:25;23.30;;;14.87;;
15706;SDS011;7953;54.302;10.128;2022-12-18T14:11:54;24.83;;;15.33;;
15706;SDS011;7953;54.302;10.128;2022-12-18T14:14:44;27.97;;;14.70;;
15706;SDS011;7953;54.302;10.128;2022-12-18T14:17:13;27.13;;;16.93;;
15706;SDS011;7953;54.302;10.128;2022-12-18T14:19:45;26.57;;;17.00;;
15706;SDS011;7953;54.302;10.128;2022-12-18T14:22:16;28.27;;;16.20;;
15706;SDS011;7953;54.302;10.128;2022-12-18T14:24:44;28.20;;;16.10;;
15706;SDS011;7953;54.302;10.128;2022-12-18T14:27:17;29.53;;;17.10;;
15706;SDS011;7953;54.302;10.128;2022-12-18T14:29:47;26.33;;;16.40;;
15706;SDS011;7953;54.302;10.128;2022-12-18T14:32:14;27.77;;;17.30;;
15706;SDS011;7953;54.302;10.128;2022-12-18T14:34:43;35.77;;;22.07;;
15706;SDS011;7953;54.302;10.128;2022-12-18T14:37:11;36.93;;;20.37;;
15706;SDS011;7953;54.302;10.128;2022-12-18T14:39:40;33.27;;;20.07;;
15706;SDS011;7953;54.302;10.128;2022-12-18T14:42:18;24.87;;;15.03;;
15706;SDS011;7953;54.302;10.128;2022-12-18T14:44:45;23.93;;;14.63;;
15706;SDS011;7953;54.302;10.128;2022-12-18T14:47:13;27.73;;;15.87;;
15706;SDS011;7953;54.302;10.128;2022-12-18T14:49:41;28.83;;;16.93;;
15706;SDS011;7953;54.302;10.128;2022-12-18T14:52:13;27.70;;;15.57;;